createdAt,value
2022-10-05T00:01:05.830Z,15.68
2022-10-05T00:03:32.183Z,15.67
2022-10-05T00:05:58.534Z,15.73
2022-10-05T00:08:24.864Z,15.69
2022-10-05T00:10:51.208Z,15.64
2022-10-05T00:13:17.553Z,15.72
2022-10-05T00:15:43.891Z,15.86
2022-10-05T00:18:10.313Z,15.96
2022-10-05T00:20:36.652Z,16.04
2022-10-05T00:23:02.985Z,16.15
2022-10-05T00:25:29.354Z,16.17
2022-10-05T00:27:55.759Z,16.15
2022-10-05T00:30:22.113Z,16.08
2022-10-05T00:32:48.443Z,16.11
2022-10-05T00:35:14.805Z,16.12
2022-10-05T00:37:41.145Z,16.26
2022-10-05T00:40:07.480Z,16.33
2022-10-05T00:42:33.829Z,16.13
2022-10-05T00:45:00.162Z,16.06
2022-10-05T00:47:26.503Z,15.94
2022-10-05T00:49:52.840Z,16.09
2022-10-05T00:52:19.183Z,15.97
2022-10-05T00:54:45.514Z,16.07
2022-10-05T00:57:11.848Z,15.98
2022-10-05T00:59:38.180Z,16.02
2022-10-05T01:02:04.553Z,16.06
2022-10-05T01:04:30.930Z,16.09
2022-10-05T01:06:57.267Z,16.06
2022-10-05T01:09:23.604Z,15.95
2022-10-05T01:11:49.942Z,15.79
2022-10-05T01:14:16.271Z,15.78
2022-10-05T01:16:42.674Z,15.73
2022-10-05T01:19:09.157Z,15.55
2022-10-05T01:21:35.507Z,15.57
2022-10-05T01:24:01.849Z,15.54
2022-10-05T01:26:28.190Z,15.71
2022-10-05T01:28:54.525Z,15.60
2022-10-05T01:31:20.948Z,15.63
2022-10-05T01:33:47.322Z,15.64
2022-10-05T01:36:13.646Z,15.55
2022-10-05T01:38:39.985Z,15.54
2022-10-05T01:41:06.330Z,15.42
2022-10-05T01:43:32.677Z,15.31
2022-10-05T01:45:59.126Z,15.27
2022-10-05T01:48:25.505Z,15.21
2022-10-05T01:50:51.840Z,15.35
2022-10-05T01:53:18.171Z,15.23
2022-10-05T01:55:44.497Z,15.55
2022-10-05T01:58:10.852Z,15.55
2022-10-05T02:00:37.202Z,15.56
2022-10-05T02:03:03.526Z,15.35
2022-10-05T02:05:29.857Z,15.24
2022-10-05T02:07:56.188Z,15.24
2022-10-05T02:10:22.525Z,15.40
2022-10-05T02:12:48.864Z,15.41
2022-10-05T02:15:15.189Z,15.46
2022-10-05T02:17:41.518Z,15.52
2022-10-05T02:20:07.862Z,15.48
2022-10-05T02:22:34.199Z,15.39
2022-10-05T02:25:00.540Z,15.28
2022-10-05T02:27:26.893Z,15.25
2022-10-05T02:29:53.221Z,15.37
2022-10-05T02:32:19.562Z,15.47
2022-10-05T02:34:45.913Z,15.28
2022-10-05T02:37:12.260Z,15.42
2022-10-05T02:39:38.607Z,15.43
2022-10-05T02:42:04.946Z,15.29
2022-10-05T02:44:31.269Z,15.23
2022-10-05T02:46:58.037Z,15.12
2022-10-05T02:49:24.631Z,15.05
2022-10-05T02:51:50.960Z,15.22
2022-10-05T02:54:17.299Z,15.07
2022-10-05T02:56:44.004Z,15.05
2022-10-05T02:59:10.524Z,14.95
2022-10-05T03:01:36.958Z,14.86
2022-10-05T03:04:03.429Z,14.94
2022-10-05T03:06:29.777Z,15.00
2022-10-05T03:08:56.124Z,15.10
2022-10-05T03:11:22.489Z,15.30
2022-10-05T03:13:48.838Z,15.13
2022-10-05T03:16:15.226Z,15.06
2022-10-05T03:18:41.636Z,14.99
2022-10-05T03:21:07.980Z,14.99
2022-10-05T03:23:34.348Z,14.93
2022-10-05T03:26:00.678Z,15.02
2022-10-05T03:28:27.061Z,15.08
2022-10-05T03:30:53.473Z,15.21
2022-10-05T03:33:19.813Z,15.15
2022-10-05T03:35:46.147Z,15.01
2022-10-05T03:38:12.472Z,14.93
2022-10-05T03:40:38.810Z,14.88
2022-10-05T03:43:05.173Z,14.86
2022-10-05T03:45:31.501Z,14.97
2022-10-05T03:48:01.273Z,14.92
2022-10-05T03:50:28.077Z,15.02
2022-10-05T03:52:54.423Z,15.01
2022-10-05T03:55:20.750Z,15.04
2022-10-05T03:57:47.084Z,15.13
2022-10-05T04:00:13.424Z,15.11
2022-10-05T04:02:39.807Z,15.05
2022-10-05T04:05:06.171Z,15.05
2022-10-05T04:07:32.513Z,14.96
2022-10-05T04:09:58.832Z,14.79
2022-10-05T04:12:25.162Z,14.74
2022-10-05T04:14:51.562Z,14.75
2022-10-05T04:17:17.905Z,14.90
2022-10-05T04:19:44.247Z,14.82
2022-10-05T04:22:10.581Z,14.97
2022-10-05T04:24:36.917Z,14.95
2022-10-05T04:27:03.252Z,14.81
2022-10-05T04:29:29.585Z,14.77
2022-10-05T04:31:55.929Z,14.85
2022-10-05T04:34:22.265Z,15.16
2022-10-05T04:36:48.872Z,15.05
2022-10-05T04:39:15.376Z,14.86
2022-10-05T04:41:41.764Z,14.93
2022-10-05T04:44:08.088Z,14.76
2022-10-05T04:46:34.452Z,14.76
2022-10-05T04:49:00.860Z,14.77
2022-10-05T04:51:27.196Z,14.80
2022-10-05T04:53:53.519Z,14.74
2022-10-05T04:56:19.860Z,14.73
2022-10-05T04:58:46.185Z,14.67
2022-10-05T05:01:12.559Z,14.84
2022-10-05T05:03:38.999Z,14.64
2022-10-05T05:06:16.977Z,14.61
2022-10-05T05:08:44.213Z,14.52
2022-10-05T05:11:15.806Z,14.49
2022-10-05T05:13:43.150Z,14.48
2022-10-05T05:16:09.520Z,14.55
2022-10-05T05:18:35.905Z,14.50
2022-10-05T05:21:02.244Z,14.62
2022-10-05T05:23:28.578Z,14.91
2022-10-05T05:25:54.919Z,15.01
2022-10-05T05:28:21.330Z,14.77
2022-10-05T05:30:47.744Z,14.68
2022-10-05T05:33:14.079Z,14.63
2022-10-05T05:35:40.431Z,14.71
2022-10-05T05:38:06.775Z,14.74
2022-10-05T05:40:33.107Z,14.66
2022-10-05T05:42:59.461Z,14.58
2022-10-05T05:45:25.811Z,14.63
2022-10-05T05:47:52.222Z,14.54
2022-10-05T05:50:18.620Z,14.75
2022-10-05T05:52:44.968Z,14.66
2022-10-05T05:55:11.311Z,14.56
2022-10-05T05:57:37.649Z,14.68
2022-10-05T06:00:03.996Z,14.62
2022-10-05T06:02:30.376Z,14.75
2022-10-05T06:04:56.761Z,14.80
2022-10-05T06:07:26.793Z,14.68
2022-10-05T06:09:55.874Z,14.70
2022-10-05T06:12:22.205Z,14.62
2022-10-05T06:14:48.541Z,14.86
2022-10-05T06:17:14.873Z,14.85
2022-10-05T06:19:41.224Z,14.89
2022-10-05T06:22:07.562Z,15.04
2022-10-05T06:24:33.902Z,14.93
2022-10-05T06:27:00.237Z,14.91
2022-10-05T06:29:26.577Z,14.98
2022-10-05T06:31:57.936Z,14.96
2022-10-05T06:34:25.163Z,15.02
2022-10-05T06:36:51.496Z,15.03
2022-10-05T06:39:17.833Z,15.00
2022-10-05T06:41:44.166Z,15.22
2022-10-05T06:44:10.505Z,15.20
2022-10-05T06:46:36.832Z,15.39
2022-10-05T06:49:03.168Z,15.35
2022-10-05T06:51:29.520Z,15.48
2022-10-05T06:53:55.859Z,15.70
2022-10-05T06:56:22.192Z,15.72
2022-10-05T06:58:48.529Z,15.85
2022-10-05T07:01:14.929Z,16.03
2022-10-05T07:03:41.308Z,16.10
2022-10-05T07:06:07.638Z,16.19
2022-10-05T07:08:33.965Z,16.22
2022-10-05T07:11:00.314Z,16.36
2022-10-05T07:13:26.641Z,16.35
2022-10-05T07:15:52.978Z,16.30
2022-10-05T07:18:19.313Z,16.45
2022-10-05T07:20:49.047Z,16.46
2022-10-05T07:23:15.730Z,16.52
2022-10-05T07:25:42.063Z,16.53
2022-10-05T07:28:08.462Z,16.62
2022-10-05T07:30:34.956Z,16.70
2022-10-05T07:33:01.327Z,16.76
2022-10-05T07:35:27.670Z,16.83
2022-10-05T07:37:54.017Z,16.83
2022-10-05T07:40:20.361Z,16.81
2022-10-05T07:42:51.816Z,16.84
2022-10-05T07:45:18.672Z,16.95
2022-10-05T07:47:45.020Z,17.02
2022-10-05T07:50:11.380Z,17.09
2022-10-05T07:52:37.724Z,17.12
2022-10-05T07:55:04.070Z,17.08
2022-10-05T07:57:30.419Z,17.19
2022-10-05T07:59:56.761Z,17.21
2022-10-05T08:02:23.241Z,17.31
2022-10-05T08:04:49.669Z,17.36
2022-10-05T08:07:16.092Z,17.37
2022-10-05T08:09:42.460Z,17.43
2022-10-05T08:12:08.793Z,17.42
2022-10-05T08:14:35.141Z,17.52
2022-10-05T08:17:01.463Z,17.47
2022-10-05T08:19:27.802Z,17.49
2022-10-05T08:21:54.134Z,17.52
2022-10-05T08:24:20.541Z,17.60
2022-10-05T08:26:46.872Z,17.56
2022-10-05T08:29:13.994Z,17.72
2022-10-05T08:31:40.590Z,17.74
2022-10-05T08:34:06.986Z,17.81
2022-10-05T08:36:33.326Z,17.78
2022-10-05T08:38:59.669Z,17.83
2022-10-05T08:41:26.014Z,17.87
2022-10-05T08:43:52.341Z,17.80
2022-10-05T08:46:18.716Z,17.89
2022-10-05T08:48:45.086Z,17.96
2022-10-05T08:51:11.442Z,17.96
2022-10-05T08:53:37.773Z,17.98
2022-10-05T08:56:04.121Z,18.06
2022-10-05T08:58:30.489Z,18.09
2022-10-05T09:00:56.820Z,18.13
2022-10-05T09:03:23.155Z,17.98
2022-10-05T09:05:49.502Z,18.21
2022-10-05T09:08:15.832Z,18.05
2022-10-05T09:10:42.171Z,18.14
2022-10-05T09:13:08.500Z,18.20
2022-10-05T09:15:34.932Z,18.28
2022-10-05T09:18:01.305Z,18.25
2022-10-05T09:20:27.650Z,18.20
2022-10-05T09:22:53.996Z,18.30
2022-10-05T09:25:20.335Z,18.35
2022-10-05T09:27:46.675Z,18.44
2022-10-05T09:30:13.013Z,18.42
2022-10-05T09:32:39.338Z,18.38
2022-10-05T09:35:05.685Z,18.37
2022-10-05T09:37:32.035Z,18.46
2022-10-05T09:40:01.355Z,18.34
2022-10-05T09:42:28.035Z,18.47
2022-10-05T09:44:54.376Z,18.52
2022-10-05T09:47:20.717Z,18.62
2022-10-05T09:49:47.051Z,18.48
2022-10-05T09:52:18.603Z,18.44
2022-10-05T09:54:45.375Z,18.54
2022-10-05T09:57:11.709Z,18.68
2022-10-05T09:59:38.045Z,18.67
2022-10-05T10:02:04.444Z,18.79
2022-10-05T10:04:30.826Z,18.76
2022-10-05T10:06:57.165Z,18.72
2022-10-05T10:09:23.494Z,18.80
2022-10-05T10:11:50.174Z,18.88
2022-10-05T10:14:16.640Z,18.90
2022-10-05T10:16:43.005Z,18.91
2022-10-05T10:19:09.351Z,18.89
2022-10-05T10:21:35.690Z,19.03
2022-10-05T10:24:02.034Z,18.91
2022-10-05T10:26:28.369Z,18.95
2022-10-05T10:28:54.701Z,19.01
2022-10-05T10:31:21.094Z,19.09
2022-10-05T10:33:47.488Z,19.06
2022-10-05T10:36:13.825Z,19.01
2022-10-05T10:38:40.186Z,19.09
2022-10-05T10:41:06.538Z,19.09
2022-10-05T10:43:32.891Z,19.03
2022-10-05T10:45:59.297Z,19.15
2022-10-05T10:48:25.656Z,19.26
2022-10-05T10:50:52.006Z,19.34
2022-10-05T10:53:18.352Z,19.25
2022-10-05T10:55:44.690Z,18.93
2022-10-05T10:58:15.735Z,19.12
2022-10-05T11:00:42.476Z,19.18
2022-10-05T11:03:08.878Z,19.30
2022-10-05T11:05:35.325Z,19.18
2022-10-05T11:08:01.661Z,19.29
2022-10-05T11:10:28.000Z,19.35
2022-10-05T11:12:54.341Z,19.52
2022-10-05T11:15:20.694Z,19.55
2022-10-05T11:17:47.031Z,19.44
2022-10-05T11:20:13.361Z,19.35
2022-10-05T11:22:39.694Z,19.55
2022-10-05T11:25:06.029Z,19.58
2022-10-05T11:27:32.367Z,19.54
2022-10-05T11:29:58.725Z,19.26
2022-10-05T11:32:26.140Z,19.57
2022-10-05T11:34:52.474Z,19.59
2022-10-05T11:37:18.817Z,19.63
2022-10-05T11:39:45.148Z,19.66
2022-10-05T11:42:11.467Z,19.63
2022-10-05T11:44:37.818Z,19.68
2022-10-05T11:47:04.152Z,19.71
2022-10-05T11:49:30.477Z,19.89
2022-10-05T11:51:56.804Z,19.91
2022-10-05T11:54:23.150Z,19.97
2022-10-05T11:56:52.263Z,20.03
2022-10-05T11:59:20.962Z,19.92
2022-10-05T12:01:47.293Z,19.85
2022-10-05T12:04:13.703Z,19.86
2022-10-05T12:06:40.057Z,19.87
2022-10-05T12:09:06.400Z,20.02
2022-10-05T12:11:32.744Z,20.06
2022-10-05T12:13:59.118Z,19.84
2022-10-05T12:16:25.479Z,19.95
2022-10-05T12:18:51.885Z,19.88
2022-10-05T12:21:18.221Z,19.91
2022-10-05T12:23:44.539Z,20.00
2022-10-05T12:26:10.856Z,20.20
2022-10-05T12:28:37.181Z,20.04
2022-10-05T12:31:03.574Z,19.93
2022-10-05T12:33:29.930Z,20.18
2022-10-05T12:35:56.264Z,20.10
2022-10-05T12:38:22.598Z,20.24
2022-10-05T12:40:48.936Z,20.46
2022-10-05T12:43:15.282Z,20.53
2022-10-05T12:45:41.624Z,20.54
2022-10-05T12:48:08.028Z,20.42
2022-10-05T12:50:34.388Z,20.38
2022-10-05T12:53:00.725Z,20.47
2022-10-05T12:55:27.199Z,20.40
2022-10-05T12:57:53.571Z,20.58
2022-10-05T13:00:23.025Z,20.59
2022-10-05T13:02:49.639Z,20.38
2022-10-05T13:05:15.985Z,20.55
2022-10-05T13:07:42.317Z,20.70
2022-10-05T13:10:08.661Z,20.76
2022-10-05T13:12:35.015Z,20.91
2022-10-05T13:15:01.350Z,20.95
2022-10-05T13:17:27.680Z,21.04
2022-10-05T13:19:54.003Z,20.61
2022-10-05T13:22:20.342Z,20.95
2022-10-05T13:24:46.677Z,21.00
2022-10-05T13:27:13.005Z,20.88
2022-10-05T13:29:39.335Z,21.02
2022-10-05T13:32:05.668Z,21.14
2022-10-05T13:34:32.003Z,21.15
2022-10-05T13:36:58.328Z,20.78
2022-10-05T13:39:24.666Z,21.08
2022-10-05T13:41:51.001Z,21.10
2022-10-05T13:44:17.337Z,21.19
2022-10-05T13:46:43.685Z,21.09
2022-10-05T13:49:10.033Z,21.29
2022-10-05T13:51:36.366Z,21.28
2022-10-05T13:54:02.699Z,21.22
2022-10-05T13:56:29.078Z,21.42
2022-10-05T13:58:55.413Z,21.45
2022-10-05T14:01:21.749Z,21.53
2022-10-05T14:03:48.090Z,21.57
2022-10-05T14:06:14.430Z,21.58
2022-10-05T14:08:40.789Z,21.56
2022-10-05T14:11:07.165Z,21.60
2022-10-05T14:13:33.509Z,21.61
2022-10-05T14:15:59.927Z,21.71
2022-10-05T14:18:26.332Z,21.67
2022-10-05T14:20:52.673Z,21.80
2022-10-05T14:23:22.598Z,21.83
2022-10-05T14:25:49.105Z,21.82
2022-10-05T14:28:15.459Z,21.79
2022-10-05T14:30:41.813Z,21.82
2022-10-05T14:33:08.144Z,21.85
2022-10-05T14:35:34.481Z,21.90
2022-10-05T14:38:00.826Z,21.93
2022-10-05T14:40:27.160Z,21.88
2022-10-05T14:42:53.484Z,21.87
2022-10-05T14:45:19.803Z,21.85
2022-10-05T14:47:46.138Z,21.92
2022-10-05T14:50:12.481Z,21.96
2022-10-05T14:52:38.835Z,21.98
2022-10-05T14:55:05.186Z,21.89
2022-10-05T14:57:31.516Z,21.93
2022-10-05T14:59:57.853Z,22.01
2022-10-05T15:02:24.237Z,21.98
2022-10-05T15:04:50.601Z,21.89
2022-10-05T15:07:16.930Z,21.97
2022-10-05T15:09:43.263Z,21.95
2022-10-05T15:12:09.603Z,22.06
2022-10-05T15:14:35.947Z,21.99
2022-10-05T15:17:02.337Z,21.96
2022-10-05T15:19:28.703Z,21.99
2022-10-05T15:21:55.041Z,21.97
2022-10-05T15:24:21.367Z,21.91
2022-10-05T15:26:47.704Z,22.01
2022-10-05T15:29:14.036Z,22.02
2022-10-05T15:31:40.371Z,21.95
2022-10-05T15:34:06.711Z,21.95
2022-10-05T15:36:33.040Z,21.62
2022-10-05T15:39:00.512Z,21.58
2022-10-05T15:41:27.025Z,21.71
2022-10-05T15:43:53.373Z,21.78
2022-10-05T15:46:19.750Z,21.78
2022-10-05T15:48:46.147Z,21.59
2022-10-05T15:51:12.484Z,21.73
2022-10-05T15:53:38.829Z,21.60
2022-10-05T15:56:05.167Z,21.46
2022-10-05T15:58:31.515Z,21.53
2022-10-05T16:00:57.911Z,21.44
2022-10-05T16:03:24.320Z,21.49
2022-10-05T16:05:50.659Z,21.54
2022-10-05T16:08:16.995Z,21.32
2022-10-05T16:10:43.324Z,21.20
2022-10-05T16:13:09.658Z,21.31
2022-10-05T16:15:36.002Z,21.27
2022-10-05T16:18:02.341Z,21.26
2022-10-05T16:20:28.682Z,21.22
2022-10-05T16:22:55.028Z,21.20
2022-10-05T16:25:21.365Z,21.34
2022-10-05T16:27:47.707Z,21.31
2022-10-05T16:30:14.058Z,21.29
2022-10-05T16:32:40.398Z,21.27
2022-10-05T16:35:06.743Z,21.37
2022-10-05T16:37:33.072Z,21.30
2022-10-05T16:39:59.398Z,21.33
2022-10-05T16:42:25.731Z,21.39
2022-10-05T16:44:52.070Z,21.23
2022-10-05T16:47:18.392Z,21.37
2022-10-05T16:49:44.726Z,21.35
2022-10-05T16:52:11.079Z,21.32
2022-10-05T16:54:37.423Z,21.33
2022-10-05T16:57:03.762Z,21.38
2022-10-05T16:59:30.106Z,21.41
2022-10-05T17:01:56.486Z,21.30
2022-10-05T17:04:22.898Z,21.35
2022-10-05T17:06:49.246Z,21.15
2022-10-05T17:09:15.576Z,21.18
2022-10-05T17:11:41.919Z,21.15
2022-10-05T17:14:08.255Z,21.22
2022-10-05T17:16:34.597Z,21.20
2022-10-05T17:19:00.941Z,21.03
2022-10-05T17:21:27.282Z,20.96
2022-10-05T17:23:53.676Z,21.02
2022-10-05T17:26:20.042Z,20.87
2022-10-05T17:28:46.398Z,20.88
2022-10-05T17:31:12.769Z,20.92
2022-10-05T17:33:39.192Z,20.88
2022-10-05T17:36:05.518Z,20.85
2022-10-05T17:38:31.845Z,20.77
2022-10-05T17:40:58.182Z,20.77
2022-10-05T17:43:24.513Z,20.79
2022-10-05T17:45:50.868Z,20.70
2022-10-05T17:48:17.254Z,20.57
2022-10-05T17:50:43.583Z,20.67
2022-10-05T17:53:09.918Z,20.64
2022-10-05T17:55:36.265Z,20.51
2022-10-05T17:58:02.602Z,20.64
2022-10-05T18:00:28.936Z,20.57
2022-10-05T18:02:55.304Z,20.46
2022-10-05T18:05:21.652Z,20.46
2022-10-05T18:07:47.995Z,20.48
2022-10-05T18:10:14.327Z,20.50
2022-10-05T18:12:40.665Z,20.49
2022-10-05T18:15:07.051Z,20.44
2022-10-05T18:17:33.386Z,20.36
2022-10-05T18:19:59.723Z,20.45
2022-10-05T18:22:26.065Z,20.52
2022-10-05T18:24:52.415Z,20.49
2022-10-05T18:27:18.758Z,20.48
2022-10-05T18:29:45.137Z,20.48
2022-10-05T18:32:11.486Z,20.48
2022-10-05T18:34:37.824Z,20.50
2022-10-05T18:37:04.167Z,20.48
2022-10-05T18:39:30.505Z,20.44
2022-10-05T18:41:56.833Z,20.57
2022-10-05T18:44:23.165Z,20.48
2022-10-05T18:46:49.596Z,20.34
2022-10-05T18:49:15.966Z,20.44
2022-10-05T18:51:42.330Z,20.39
2022-10-05T18:54:08.657Z,20.39
2022-10-05T18:56:34.990Z,20.42
2022-10-05T18:59:01.321Z,20.55
2022-10-05T19:01:27.768Z,20.40
2022-10-05T19:03:54.224Z,20.44
2022-10-05T19:06:20.546Z,20.40
2022-10-05T19:08:46.897Z,20.41
2022-10-05T19:11:13.245Z,20.24
2022-10-05T19:13:39.579Z,20.17
2022-10-05T19:16:05.968Z,20.19
2022-10-05T19:18:32.333Z,20.11
2022-10-05T19:20:58.699Z,19.86
2022-10-05T19:23:25.427Z,19.71
2022-10-05T19:25:52.021Z,19.62
2022-10-05T19:28:18.386Z,19.54
2022-10-05T19:30:44.748Z,19.40
2022-10-05T19:33:11.111Z,19.37
2022-10-05T19:35:37.451Z,19.37
2022-10-05T19:38:03.816Z,19.32
2022-10-05T19:40:30.207Z,19.33
2022-10-05T19:42:56.578Z,19.23
2022-10-05T19:45:22.920Z,19.37
2022-10-05T19:47:49.265Z,19.43
2022-10-05T19:50:15.611Z,19.41
2022-10-05T19:52:44.230Z,19.44
2022-10-05T19:55:13.939Z,19.50
2022-10-05T19:57:40.271Z,19.49
2022-10-05T20:00:06.623Z,19.53
2022-10-05T20:02:32.995Z,19.60
2022-10-05T20:04:59.390Z,19.60
2022-10-05T20:07:25.733Z,19.67
2022-10-05T20:09:52.084Z,19.69
2022-10-05T20:12:18.418Z,19.52
2022-10-05T20:14:44.757Z,19.53
2022-10-05T20:17:11.118Z,19.71
2022-10-05T20:19:37.437Z,19.77
2022-10-05T20:22:03.768Z,19.76
2022-10-05T20:24:30.110Z,19.61
2022-10-05T20:26:56.450Z,19.54
2022-10-05T20:29:22.792Z,19.52
2022-10-05T20:31:49.218Z,19.50
2022-10-05T20:34:15.614Z,19.43
2022-10-05T20:36:41.951Z,19.43
2022-10-05T20:39:08.268Z,19.39
2022-10-05T20:41:34.596Z,19.35
2022-10-05T20:44:00.929Z,19.53
2022-10-05T20:46:27.317Z,19.59
2022-10-05T20:48:53.682Z,19.59
2022-10-05T20:51:20.014Z,19.63
2022-10-05T20:53:46.350Z,19.69
2022-10-05T20:56:12.694Z,19.55
2022-10-05T20:58:39.039Z,19.60
2022-10-05T21:01:05.423Z,19.59
2022-10-05T21:03:31.805Z,19.61
2022-10-05T21:05:58.147Z,19.60
2022-10-05T21:08:24.737Z,19.76
2022-10-05T21:10:51.267Z,19.54
2022-10-05T21:13:17.606Z,19.48
2022-10-05T21:15:43.941Z,19.49
2022-10-05T21:18:10.271Z,19.56
2022-10-05T21:20:36.617Z,19.46
2022-10-05T21:23:02.962Z,19.44
2022-10-05T21:25:29.307Z,19.67
2022-10-05T21:27:55.644Z,19.68
2022-10-05T21:30:21.978Z,19.66
2022-10-05T21:32:48.343Z,19.60
2022-10-05T21:35:14.753Z,19.76
2022-10-05T21:37:41.096Z,19.74
2022-10-05T21:40:07.430Z,19.65
2022-10-05T21:42:33.790Z,19.76
2022-10-05T21:45:00.127Z,19.86
2022-10-05T21:47:26.465Z,19.78
2022-10-05T21:49:52.788Z,19.91
2022-10-05T21:52:19.140Z,20.02
2022-10-05T21:54:45.464Z,19.84
2022-10-05T21:57:11.796Z,19.89
2022-10-05T21:59:38.133Z,19.82
2022-10-05T22:02:04.457Z,19.92
2022-10-05T22:04:30.811Z,20.04
2022-10-05T22:06:57.157Z,19.96
2022-10-05T22:09:23.836Z,19.84
2022-10-05T22:11:50.171Z,19.95
2022-10-05T22:14:16.512Z,19.89
2022-10-05T22:16:42.954Z,19.82
2022-10-05T22:19:09.345Z,19.78
2022-10-05T22:21:35.685Z,19.77
2022-10-05T22:24:02.014Z,19.75
2022-10-05T22:26:28.357Z,19.75
2022-10-05T22:28:54.694Z,19.66
2022-10-05T22:31:21.096Z,19.58
2022-10-05T22:33:47.534Z,19.63
2022-10-05T22:36:13.866Z,19.62
2022-10-05T22:38:40.204Z,19.63
2022-10-05T22:41:06.565Z,19.50
2022-10-05T22:43:32.933Z,19.47
2022-10-05T22:45:59.330Z,19.43
2022-10-05T22:48:25.996Z,19.41
2022-10-05T22:50:52.737Z,19.33
2022-10-05T22:53:19.076Z,19.12
2022-10-05T22:55:45.412Z,19.07
2022-10-05T22:58:11.733Z,19.11
2022-10-05T23:00:57.551Z,19.08
2022-10-05T23:03:24.386Z,18.98
2022-10-05T23:05:50.734Z,18.93
2022-10-05T23:08:17.064Z,18.75
2022-10-05T23:10:43.399Z,18.72
2022-10-05T23:13:09.736Z,18.68
2022-10-05T23:15:36.080Z,18.67
2022-10-05T23:18:02.414Z,18.58
2022-10-05T23:20:28.752Z,18.55
2022-10-05T23:22:55.092Z,18.66
2022-10-05T23:25:21.434Z,18.68
2022-10-05T23:27:47.766Z,18.51
2022-10-05T23:30:14.108Z,18.51
2022-10-05T23:32:40.441Z,18.54
2022-10-05T23:35:06.780Z,18.51
2022-10-05T23:37:33.113Z,18.58
2022-10-05T23:39:59.446Z,18.64
2022-10-05T23:42:25.785Z,18.56
2022-10-05T23:44:52.128Z,18.54
2022-10-05T23:47:18.453Z,18.51
2022-10-05T23:49:44.811Z,18.61
2022-10-05T23:52:11.149Z,18.48
2022-10-05T23:54:37.493Z,18.45
2022-10-05T23:57:03.847Z,18.49
2022-10-05T23:59:30.176Z,18.52
